sensor_id;sensor_type;location;lat;lon;timestamp;P1;durP1;ratioP1;P2;durP2;ratioP2
61397;SDS011;47267;48.130;-2.040;2023-10-19T00:01:06;9.00;;;2.20;;
61397;SDS011;47267;48.130;-2.040;2023-10-19T00:03:36;8.45;;;1.80;;
61397;SDS011;47267;48.130;-2.040;2023-10-19T00:06:02;8.63;;;2.30;;
61397;SDS011;47267;48.130;-2.040;2023-10-19T00:08:27;11.88;;;2.50;;
61397;SDS011;47267;48.130;-2.040;2023-10-19T00:11:01;7.40;;;1.83;;
61397;SDS011;47267;48.130;-2.040;2023-10-19T00:13:29;8.57;;;2.40;;
61397;SDS011;47267;48.130;-2.040;2023-10-19T00:15:56;6.70;;;2.08;;
61397;SDS011;47267;48.130;-2.040;2023-10-19T00:18:25;6.80;;;1.80;;
61397;SDS011;47267;48.130;-2.040;2023-10-19T00:20:51;6.28;;;1.85;;
61397;SDS011;47267;48.130;-2.040;2023-10-19T00:23:24;9.23;;;2.20;;
61397;SDS011;47267;48.130;-2.040;2023-10-19T00:26:03;8.20;;;2.65;;
61397;SDS011;47267;48.130;-2.040;2023-10-19T00:28:39;8.13;;;2.03;;
61397;SDS011;47267;48.130;-2.040;2023-10-19T00:31:05;7.03;;;1.63;;
61397;SDS011;47267;48.130;-2.040;2023-10-19T00:33:36;8.23;;;1.90;;
61397;SDS011;47267;48.130;-2.040;2023-10-19T00:36:04;9.02;;;2.08;;
61397;SDS011;47267;48.130;-2.040;2023-10-19T00:38:34;6.75;;;1.70;;
61397;SDS011;47267;48.130;-2.040;2023-10-19T00:41:00;5.85;;;1.73;;
61397;SDS011;47267;48.130;-2.040;2023-10-19T00:43:36;7.47;;;1.83;;
61397;SDS011;47267;48.130;-2.040;2023-10-19T00:46:13;9.05;;;2.10;;
61397;SDS011;47267;48.130;-2.040;2023-10-19T00:48:55;4.93;;;1.52;;
61397;SDS011;47267;48.130;-2.040;2023-10-19T00:51:24;8.65;;;2.03;;
61397;SDS011;47267;48.130;-2.040;2023-10-19T00:54:00;7.45;;;1.98;;
61397;SDS011;47267;48.130;-2.040;2023-10-19T00:56:34;10.73;;;2.60;;
61397;SDS011;47267;48.130;-2.040;2023-10-19T00:59:03;7.07;;;1.80;;
61397;SDS011;47267;48.130;-2.040;2023-10-19T01:01:50;4.80;;;1.50;;
61397;SDS011;47267;48.130;-2.040;2023-10-19T01:04:23;8.05;;;2.13;;
61397;SDS011;47267;48.130;-2.040;2023-10-19T01:06:50;5.55;;;1.55;;
61397;SDS011;47267;48.130;-2.040;2023-10-19T01:09:37;8.32;;;1.80;;
61397;SDS011;47267;48.130;-2.040;2023-10-19T01:12:04;6.40;;;1.40;;
61397;SDS011;47267;48.130;-2.040;2023-10-19T01:17:33;6.70;;;1.70;;
61397;SDS011;47267;48.130;-2.040;2023-10-19T01:20:09;8.77;;;2.08;;
61397;SDS011;47267;48.130;-2.040;2023-10-19T01:22:52;6.97;;;1.80;;
61397;SDS011;47267;48.130;-2.040;2023-10-19T01:25:31;5.60;;;1.60;;
61397;SDS011;47267;48.130;-2.040;2023-10-19T01:28:08;6.45;;;1.90;;
61397;SDS011;47267;48.130;-2.040;2023-10-19T01:30:34;7.72;;;1.50;;
61397;SDS011;47267;48.130;-2.040;2023-10-19T01:33:04;5.15;;;1.55;;
61397;SDS011;47267;48.130;-2.040;2023-10-19T01:35:37;6.57;;;1.75;;
61397;SDS011;47267;48.130;-2.040;2023-10-19T01:38:22;6.65;;;2.00;;
61397;SDS011;47267;48.130;-2.040;2023-10-19T01:40:48;5.35;;;1.30;;
61397;SDS011;47267;48.130;-2.040;2023-10-19T01:43:16;8.00;;;2.00;;
61397;SDS011;47267;48.130;-2.040;2023-10-19T01:45:51;5.82;;;1.60;;
61397;SDS011;47267;48.130;-2.040;2023-10-19T01:48:19;6.97;;;1.75;;
61397;SDS011;47267;48.130;-2.040;2023-10-19T01:50:48;6.43;;;1.80;;
61397;SDS011;47267;48.130;-2.040;2023-10-19T01:53:16;6.93;;;1.20;;
61397;SDS011;47267;48.130;-2.040;2023-10-19T01:55:43;5.93;;;1.75;;
61397;SDS011;47267;48.130;-2.040;2023-10-19T01:58:12;7.68;;;2.15;;
61397;SDS011;47267;48.130;-2.040;2023-10-19T02:00:39;5.75;;;1.60;;
61397;SDS011;47267;48.130;-2.040;2023-10-19T02:03:07;7.28;;;1.50;;
61397;SDS011;47267;48.130;-2.040;2023-10-19T02:05:33;7.05;;;2.22;;
61397;SDS011;47267;48.130;-2.040;2023-10-19T02:08:07;7.18;;;1.50;;
61397;SDS011;47267;48.130;-2.040;2023-10-19T02:10:34;6.70;;;1.65;;
61397;SDS011;47267;48.130;-2.040;2023-10-19T02:13:00;5.47;;;1.40;;
61397;SDS011;47267;48.130;-2.040;2023-10-19T02:18:01;4.30;;;1.17;;
61397;SDS011;47267;48.130;-2.040;2023-10-19T02:20:28;4.47;;;1.30;;
61397;SDS011;47267;48.130;-2.040;2023-10-19T02:22:54;5.47;;;1.58;;
61397;SDS011;47267;48.130;-2.040;2023-10-19T02:25:22;6.57;;;1.60;;
61397;SDS011;47267;48.130;-2.040;2023-10-19T02:28:01;5.20;;;1.23;;
61397;SDS011;47267;48.130;-2.040;2023-10-19T02:30:27;4.60;;;1.38;;
61397;SDS011;47267;48.130;-2.040;2023-10-19T02:32:55;4.28;;;1.33;;
61397;SDS011;47267;48.130;-2.040;2023-10-19T02:35:21;3.80;;;1.02;;
61397;SDS011;47267;48.130;-2.040;2023-10-19T02:37:47;4.95;;;1.30;;
61397;SDS011;47267;48.130;-2.040;2023-10-19T02:40:13;4.05;;;1.17;;
61397;SDS011;47267;48.130;-2.040;2023-10-19T02:42:45;3.92;;;1.13;;
61397;SDS011;47267;48.130;-2.040;2023-10-19T02:45:19;4.70;;;1.52;;
61397;SDS011;47267;48.130;-2.040;2023-10-19T02:47:45;5.68;;;1.10;;
61397;SDS011;47267;48.130;-2.040;2023-10-19T02:50:11;4.20;;;1.15;;
61397;SDS011;47267;48.130;-2.040;2023-10-19T02:52:47;3.90;;;1.13;;
61397;SDS011;47267;48.130;-2.040;2023-10-19T02:55:16;4.05;;;1.20;;
61397;SDS011;47267;48.130;-2.040;2023-10-19T02:57:41;4.05;;;1.27;;
61397;SDS011;47267;48.130;-2.040;2023-10-19T03:00:12;4.53;;;1.50;;
61397;SDS011;47267;48.130;-2.040;2023-10-19T03:02:44;3.38;;;1.17;;
61397;SDS011;47267;48.130;-2.040;2023-10-19T03:05:10;3.38;;;1.15;;
61397;SDS011;47267;48.130;-2.040;2023-10-19T03:07:45;3.80;;;1.00;;
61397;SDS011;47267;48.130;-2.040;2023-10-19T03:10:11;4.63;;;1.35;;
61397;SDS011;47267;48.130;-2.040;2023-10-19T03:12:50;2.53;;;1.00;;
61397;SDS011;47267;48.130;-2.040;2023-10-19T03:15:16;3.08;;;1.00;;
61397;SDS011;47267;48.130;-2.040;2023-10-19T03:17:46;2.75;;;1.00;;
61397;SDS011;47267;48.130;-2.040;2023-10-19T03:20:12;4.88;;;1.00;;
61397;SDS011;47267;48.130;-2.040;2023-10-19T03:22:37;3.30;;;1.00;;
61397;SDS011;47267;48.130;-2.040;2023-10-19T03:25:07;3.60;;;0.90;;
61397;SDS011;47267;48.130;-2.040;2023-10-19T03:27:51;3.08;;;0.88;;
61397;SDS011;47267;48.130;-2.040;2023-10-19T03:30:18;2.53;;;0.98;;
61397;SDS011;47267;48.130;-2.040;2023-10-19T03:32:44;4.50;;;1.02;;
61397;SDS011;47267;48.130;-2.040;2023-10-19T03:35:09;3.17;;;1.00;;
61397;SDS011;47267;48.130;-2.040;2023-10-19T03:37:40;4.72;;;0.93;;
61397;SDS011;47267;48.130;-2.040;2023-10-19T03:40:07;2.92;;;1.15;;
61397;SDS011;47267;48.130;-2.040;2023-10-19T03:42:35;3.00;;;1.00;;
61397;SDS011;47267;48.130;-2.040;2023-10-19T03:45:06;3.58;;;0.95;;
61397;SDS011;47267;48.130;-2.040;2023-10-19T03:47:38;5.57;;;1.00;;
61397;SDS011;47267;48.130;-2.040;2023-10-19T03:50:04;2.60;;;0.90;;
61397;SDS011;47267;48.130;-2.040;2023-10-19T03:52:39;2.25;;;0.88;;
61397;SDS011;47267;48.130;-2.040;2023-10-19T03:55:05;3.85;;;0.90;;
61397;SDS011;47267;48.130;-2.040;2023-10-19T03:57:41;3.63;;;1.10;;
61397;SDS011;47267;48.130;-2.040;2023-10-19T04:00:11;3.00;;;0.87;;
61397;SDS011;47267;48.130;-2.040;2023-10-19T04:02:41;2.92;;;1.10;;
61397;SDS011;47267;48.130;-2.040;2023-10-19T04:05:07;3.08;;;1.05;;
61397;SDS011;47267;48.130;-2.040;2023-10-19T04:07:39;3.95;;;1.10;;
61397;SDS011;47267;48.130;-2.040;2023-10-19T04:10:06;3.70;;;0.95;;
61397;SDS011;47267;48.130;-2.040;2023-10-19T04:12:33;2.80;;;1.05;;
61397;SDS011;47267;48.130;-2.040;2023-10-19T04:15:01;3.03;;;0.88;;
61397;SDS011;47267;48.130;-2.040;2023-10-19T04:17:41;3.65;;;1.17;;
61397;SDS011;47267;48.130;-2.040;2023-10-19T04:20:08;3.28;;;0.85;;
61397;SDS011;47267;48.130;-2.040;2023-10-19T04:25:09;5.00;;;1.00;;
61397;SDS011;47267;48.130;-2.040;2023-10-19T04:27:38;3.38;;;1.10;;
61397;SDS011;47267;48.130;-2.040;2023-10-19T04:30:07;4.22;;;1.23;;
61397;SDS011;47267;48.130;-2.040;2023-10-19T04:32:40;2.55;;;1.00;;
61397;SDS011;47267;48.130;-2.040;2023-10-19T04:35:13;3.85;;;0.88;;
61397;SDS011;47267;48.130;-2.040;2023-10-19T04:37:40;2.28;;;0.95;;
61397;SDS011;47267;48.130;-2.040;2023-10-19T04:40:10;4.90;;;1.10;;
61397;SDS011;47267;48.130;-2.040;2023-10-19T04:42:39;3.80;;;0.90;;
61397;SDS011;47267;48.130;-2.040;2023-10-19T04:45:05;4.00;;;1.13;;
61397;SDS011;47267;48.130;-2.040;2023-10-19T04:47:32;3.45;;;1.00;;
61397;SDS011;47267;48.130;-2.040;2023-10-19T04:50:01;3.80;;;0.82;;
61397;SDS011;47267;48.130;-2.040;2023-10-19T04:52:28;5.22;;;1.15;;
61397;SDS011;47267;48.130;-2.040;2023-10-19T04:54:54;4.45;;;1.02;;
61397;SDS011;47267;48.130;-2.040;2023-10-19T04:57:19;3.60;;;1.33;;
61397;SDS011;47267;48.130;-2.040;2023-10-19T04:59:48;1.60;;;0.60;;
61397;SDS011;47267;48.130;-2.040;2023-10-19T05:02:14;3.60;;;0.93;;
61397;SDS011;47267;48.130;-2.040;2023-10-19T05:04:39;5.10;;;1.08;;
61397;SDS011;47267;48.130;-2.040;2023-10-19T05:07:08;4.13;;;1.17;;
61397;SDS011;47267;48.130;-2.040;2023-10-19T05:09:37;4.10;;;0.88;;
61397;SDS011;47267;48.130;-2.040;2023-10-19T05:12:04;4.22;;;1.35;;
61397;SDS011;47267;48.130;-2.040;2023-10-19T05:14:37;3.75;;;0.88;;
61397;SDS011;47267;48.130;-2.040;2023-10-19T05:17:04;2.58;;;0.93;;
61397;SDS011;47267;48.130;-2.040;2023-10-19T05:19:33;4.28;;;1.20;;
61397;SDS011;47267;48.130;-2.040;2023-10-19T05:22:04;2.90;;;1.13;;
61397;SDS011;47267;48.130;-2.040;2023-10-19T05:24:32;4.30;;;1.05;;
61397;SDS011;47267;48.130;-2.040;2023-10-19T05:26:58;3.95;;;1.15;;
61397;SDS011;47267;48.130;-2.040;2023-10-19T05:29:24;3.70;;;0.90;;
61397;SDS011;47267;48.130;-2.040;2023-10-19T05:31:50;2.25;;;0.80;;
61397;SDS011;47267;48.130;-2.040;2023-10-19T05:34:23;3.63;;;1.00;;
61397;SDS011;47267;48.130;-2.040;2023-10-19T05:36:49;3.70;;;1.20;;
61397;SDS011;47267;48.130;-2.040;2023-10-19T05:39:15;6.22;;;1.25;;
61397;SDS011;47267;48.130;-2.040;2023-10-19T05:41:41;3.50;;;0.82;;
61397;SDS011;47267;48.130;-2.040;2023-10-19T05:44:07;5.05;;;0.90;;
61397;SDS011;47267;48.130;-2.040;2023-10-19T05:46:33;3.30;;;0.90;;
61397;SDS011;47267;48.130;-2.040;2023-10-19T05:48:59;2.17;;;1.00;;
61397;SDS011;47267;48.130;-2.040;2023-10-19T05:51:28;2.95;;;1.00;;
61397;SDS011;47267;48.130;-2.040;2023-10-19T05:53:58;2.90;;;0.80;;
61397;SDS011;47267;48.130;-2.040;2023-10-19T05:56:29;4.97;;;1.20;;
61397;SDS011;47267;48.130;-2.040;2023-10-19T05:58:56;2.85;;;1.00;;
61397;SDS011;47267;48.130;-2.040;2023-10-19T06:01:22;3.33;;;1.05;;
61397;SDS011;47267;48.130;-2.040;2023-10-19T06:03:49;2.65;;;0.80;;
61397;SDS011;47267;48.130;-2.040;2023-10-19T06:06:15;4.38;;;1.10;;
61397;SDS011;47267;48.130;-2.040;2023-10-19T06:08:41;4.30;;;1.20;;
61397;SDS011;47267;48.130;-2.040;2023-10-19T06:11:07;3.95;;;1.27;;
61397;SDS011;47267;48.130;-2.040;2023-10-19T06:13:32;3.60;;;1.30;;
61397;SDS011;47267;48.130;-2.040;2023-10-19T06:15:58;3.58;;;1.13;;
61397;SDS011;47267;48.130;-2.040;2023-10-19T06:18:23;3.58;;;1.10;;
61397;SDS011;47267;48.130;-2.040;2023-10-19T06:20:54;4.80;;;1.30;;
61397;SDS011;47267;48.130;-2.040;2023-10-19T06:23:20;6.68;;;1.33;;
61397;SDS011;47267;48.130;-2.040;2023-10-19T06:25:46;3.53;;;1.10;;
61397;SDS011;47267;48.130;-2.040;2023-10-19T06:28:12;4.25;;;1.35;;
61397;SDS011;47267;48.130;-2.040;2023-10-19T06:30:38;4.68;;;1.33;;
61397;SDS011;47267;48.130;-2.040;2023-10-19T06:33:05;3.13;;;1.30;;
61397;SDS011;47267;48.130;-2.040;2023-10-19T06:35:31;3.63;;;1.00;;
61397;SDS011;47267;48.130;-2.040;2023-10-19T06:37:58;6.38;;;1.35;;
61397;SDS011;47267;48.130;-2.040;2023-10-19T06:40:25;4.05;;;1.45;;
61397;SDS011;47267;48.130;-2.040;2023-10-19T06:42:57;4.30;;;1.40;;
61397;SDS011;47267;48.130;-2.040;2023-10-19T06:45:23;5.03;;;1.40;;
61397;SDS011;47267;48.130;-2.040;2023-10-19T06:47:51;4.45;;;1.42;;
61397;SDS011;47267;48.130;-2.040;2023-10-19T06:50:18;7.18;;;1.25;;
61397;SDS011;47267;48.130;-2.040;2023-10-19T06:52:45;3.58;;;1.10;;
61397;SDS011;47267;48.130;-2.040;2023-10-19T06:55:13;4.05;;;1.00;;
61397;SDS011;47267;48.130;-2.040;2023-10-19T06:57:42;5.05;;;1.30;;
61397;SDS011;47267;48.130;-2.040;2023-10-19T07:00:09;7.10;;;1.30;;
61397;SDS011;47267;48.130;-2.040;2023-10-19T07:02:39;4.53;;;1.75;;
61397;SDS011;47267;48.130;-2.040;2023-10-19T07:05:06;4.88;;;1.30;;
61397;SDS011;47267;48.130;-2.040;2023-10-19T07:07:35;4.78;;;1.27;;
61397;SDS011;47267;48.130;-2.040;2023-10-19T07:10:02;5.50;;;1.30;;
61397;SDS011;47267;48.130;-2.040;2023-10-19T07:12:28;5.70;;;1.67;;
61397;SDS011;47267;48.130;-2.040;2023-10-19T07:14:54;3.40;;;1.30;;
61397;SDS011;47267;48.130;-2.040;2023-10-19T07:17:20;6.53;;;1.30;;
61397;SDS011;47267;48.130;-2.040;2023-10-19T07:19:45;5.47;;;1.88;;
61397;SDS011;47267;48.130;-2.040;2023-10-19T07:22:14;4.40;;;1.13;;
61397;SDS011;47267;48.130;-2.040;2023-10-19T07:24:40;5.65;;;1.50;;
61397;SDS011;47267;48.130;-2.040;2023-10-19T07:27:06;3.20;;;1.20;;
61397;SDS011;47267;48.130;-2.040;2023-10-19T07:29:33;5.50;;;1.70;;
61397;SDS011;47267;48.130;-2.040;2023-10-19T07:32:01;3.85;;;1.30;;
61397;SDS011;47267;48.130;-2.040;2023-10-19T07:34:32;4.18;;;1.42;;
61397;SDS011;47267;48.130;-2.040;2023-10-19T07:36:59;3.83;;;1.38;;
61397;SDS011;47267;48.130;-2.040;2023-10-19T07:39:26;2.38;;;1.13;;
61397;SDS011;47267;48.130;-2.040;2023-10-19T07:41:54;4.25;;;1.33;;
61397;SDS011;47267;48.130;-2.040;2023-10-19T07:44:21;4.53;;;1.70;;
61397;SDS011;47267;48.130;-2.040;2023-10-19T07:46:47;4.55;;;1.45;;
61397;SDS011;47267;48.130;-2.040;2023-10-19T07:49:14;4.13;;;1.33;;
61397;SDS011;47267;48.130;-2.040;2023-10-19T07:51:49;6.70;;;1.30;;
61397;SDS011;47267;48.130;-2.040;2023-10-19T07:54:16;4.20;;;1.40;;
61397;SDS011;47267;48.130;-2.040;2023-10-19T07:56:41;7.13;;;1.65;;
61397;SDS011;47267;48.130;-2.040;2023-10-19T07:59:08;5.25;;;1.40;;
61397;SDS011;47267;48.130;-2.040;2023-10-19T08:01:34;6.88;;;1.55;;
61397;SDS011;47267;48.130;-2.040;2023-10-19T08:04:01;6.20;;;1.67;;
61397;SDS011;47267;48.130;-2.040;2023-10-19T08:06:27;6.80;;;1.70;;
61397;SDS011;47267;48.130;-2.040;2023-10-19T08:08:52;14.93;;;1.73;;
61397;SDS011;47267;48.130;-2.040;2023-10-19T08:11:18;8.98;;;1.73;;
61397;SDS011;47267;48.130;-2.040;2023-10-19T08:13:44;6.28;;;2.00;;
61397;SDS011;47267;48.130;-2.040;2023-10-19T08:16:10;7.50;;;1.50;;
61397;SDS011;47267;48.130;-2.040;2023-10-19T08:18:37;6.88;;;1.38;;
61397;SDS011;47267;48.130;-2.040;2023-10-19T08:21:02;9.23;;;1.88;;
61397;SDS011;47267;48.130;-2.040;2023-10-19T08:23:29;9.70;;;1.95;;
61397;SDS011;47267;48.130;-2.040;2023-10-19T08:25:56;7.68;;;1.83;;
61397;SDS011;47267;48.130;-2.040;2023-10-19T08:28:22;6.20;;;1.40;;
61397;SDS011;47267;48.130;-2.040;2023-10-19T08:30:48;6.93;;;2.10;;
61397;SDS011;47267;48.130;-2.040;2023-10-19T08:33:23;6.95;;;1.60;;
61397;SDS011;47267;48.130;-2.040;2023-10-19T08:35:51;6.30;;;1.73;;
61397;SDS011;47267;48.130;-2.040;2023-10-19T08:38:18;8.68;;;1.90;;
61397;SDS011;47267;48.130;-2.040;2023-10-19T08:40:44;6.80;;;1.98;;
61397;SDS011;47267;48.130;-2.040;2023-10-19T08:43:11;7.88;;;1.60;;
61397;SDS011;47267;48.130;-2.040;2023-10-19T08:45:38;6.72;;;1.60;;
61397;SDS011;47267;48.130;-2.040;2023-10-19T08:48:04;7.78;;;2.10;;
61397;SDS011;47267;48.130;-2.040;2023-10-19T08:50:31;4.63;;;1.58;;
61397;SDS011;47267;48.130;-2.040;2023-10-19T08:52:59;6.78;;;1.55;;
61397;SDS011;47267;48.130;-2.040;2023-10-19T08:55:29;5.10;;;1.38;;
61397;SDS011;47267;48.130;-2.040;2023-10-19T08:57:55;5.80;;;1.63;;
61397;SDS011;47267;48.130;-2.040;2023-10-19T09:00:23;7.97;;;2.10;;
61397;SDS011;47267;48.130;-2.040;2023-10-19T09:02:52;10.30;;;2.25;;
61397;SDS011;47267;48.130;-2.040;2023-10-19T09:05:19;8.70;;;2.08;;
61397;SDS011;47267;48.130;-2.040;2023-10-19T09:07:47;7.00;;;1.70;;
61397;SDS011;47267;48.130;-2.040;2023-10-19T09:10:28;5.03;;;1.73;;
61397;SDS011;47267;48.130;-2.040;2023-10-19T09:15:29;6.97;;;1.70;;
61397;SDS011;47267;48.130;-2.040;2023-10-19T09:17:58;8.40;;;2.08;;
61397;SDS011;47267;48.130;-2.040;2023-10-19T09:20:42;7.15;;;1.90;;
61397;SDS011;47267;48.130;-2.040;2023-10-19T09:23:19;5.47;;;1.75;;
61397;SDS011;47267;48.130;-2.040;2023-10-19T09:25:46;8.80;;;2.08;;
61397;SDS011;47267;48.130;-2.040;2023-10-19T09:28:12;6.88;;;1.65;;
61397;SDS011;47267;48.130;-2.040;2023-10-19T09:30:39;9.73;;;1.88;;
61397;SDS011;47267;48.130;-2.040;2023-10-19T09:33:06;6.28;;;1.83;;
61397;SDS011;47267;48.130;-2.040;2023-10-19T09:35:34;10.60;;;2.13;;
61397;SDS011;47267;48.130;-2.040;2023-10-19T09:38:03;8.15;;;1.73;;
61397;SDS011;47267;48.130;-2.040;2023-10-19T09:40:31;5.88;;;1.85;;
61397;SDS011;47267;48.130;-2.040;2023-10-19T09:42:58;5.65;;;1.60;;
61397;SDS011;47267;48.130;-2.040;2023-10-19T09:45:29;8.10;;;2.03;;
61397;SDS011;47267;48.130;-2.040;2023-10-19T09:47:57;7.15;;;2.00;;
61397;SDS011;47267;48.130;-2.040;2023-10-19T09:50:29;6.30;;;2.00;;
61397;SDS011;47267;48.130;-2.040;2023-10-19T09:52:55;8.88;;;1.95;;
61397;SDS011;47267;48.130;-2.040;2023-10-19T09:55:22;5.53;;;1.88;;
61397;SDS011;47267;48.130;-2.040;2023-10-19T09:58:09;10.55;;;1.92;;
61397;SDS011;47267;48.130;-2.040;2023-10-19T10:00:47;6.35;;;1.75;;
61397;SDS011;47267;48.130;-2.040;2023-10-19T10:06:29;7.15;;;1.67;;
61397;SDS011;47267;48.130;-2.040;2023-10-19T10:09:17;7.70;;;2.05;;
61397;SDS011;47267;48.130;-2.040;2023-10-19T10:11:48;7.45;;;2.10;;
61397;SDS011;47267;48.130;-2.040;2023-10-19T10:14:24;9.10;;;1.80;;
61397;SDS011;47267;48.130;-2.040;2023-10-19T10:17:00;10.73;;;2.40;;
61397;SDS011;47267;48.130;-2.040;2023-10-19T10:19:27;6.55;;;1.73;;
61397;SDS011;47267;48.130;-2.040;2023-10-19T10:22:11;8.50;;;1.67;;
61397;SDS011;47267;48.130;-2.040;2023-10-19T10:24:43;6.25;;;1.65;;
61397;SDS011;47267;48.130;-2.040;2023-10-19T10:27:09;8.57;;;1.67;;
61397;SDS011;47267;48.130;-2.040;2023-10-19T10:29:53;7.15;;;1.83;;
61397;SDS011;47267;48.130;-2.040;2023-10-19T10:32:44;5.70;;;1.33;;
61397;SDS011;47267;48.130;-2.040;2023-10-19T10:38:05;8.52;;;1.83;;
61397;SDS011;47267;48.130;-2.040;2023-10-19T10:43:08;6.63;;;2.13;;
61397;SDS011;47267;48.130;-2.040;2023-10-19T10:45:35;7.88;;;1.88;;
61397;SDS011;47267;48.130;-2.040;2023-10-19T10:48:01;8.27;;;2.45;;
61397;SDS011;47267;48.130;-2.040;2023-10-19T10:50:29;8.32;;;2.20;;
61397;SDS011;47267;48.130;-2.040;2023-10-19T10:52:54;10.10;;;2.33;;
61397;SDS011;47267;48.130;-2.040;2023-10-19T10:55:22;6.10;;;1.77;;
61397;SDS011;47267;48.130;-2.040;2023-10-19T10:57:50;6.93;;;1.98;;
61397;SDS011;47267;48.130;-2.040;2023-10-19T11:00:16;7.65;;;1.85;;
61397;SDS011;47267;48.130;-2.040;2023-10-19T11:02:45;8.13;;;1.85;;
61397;SDS011;47267;48.130;-2.040;2023-10-19T11:05:24;6.43;;;1.60;;
61397;SDS011;47267;48.130;-2.040;2023-10-19T11:08:09;8.57;;;2.47;;
61397;SDS011;47267;48.130;-2.040;2023-10-19T11:10:38;8.10;;;1.80;;
61397;SDS011;47267;48.130;-2.040;2023-10-19T11:13:16;6.15;;;1.67;;
61397;SDS011;47267;48.130;-2.040;2023-10-19T11:15:52;8.45;;;1.88;;
61397;SDS011;47267;48.130;-2.040;2023-10-19T11:18:28;7.13;;;1.92;;
61397;SDS011;47267;48.130;-2.040;2023-10-19T11:20:58;10.18;;;2.35;;
61397;SDS011;47267;48.130;-2.040;2023-10-19T11:23:34;7.28;;;1.70;;
61397;SDS011;47267;48.130;-2.040;2023-10-19T11:26:08;6.97;;;1.60;;
61397;SDS011;47267;48.130;-2.040;2023-10-19T11:28:37;7.93;;;2.10;;
61397;SDS011;47267;48.130;-2.040;2023-10-19T11:31:19;5.70;;;1.63;;
61397;SDS011;47267;48.130;-2.040;2023-10-19T11:33:49;8.25;;;1.85;;
61397;SDS011;47267;48.130;-2.040;2023-10-19T11:36:16;6.72;;;1.77;;
61397;SDS011;47267;48.130;-2.040;2023-10-19T11:38:47;7.45;;;1.90;;
61397;SDS011;47267;48.130;-2.040;2023-10-19T11:41:14;6.60;;;1.48;;
61397;SDS011;47267;48.130;-2.040;2023-10-19T11:43:41;8.18;;;1.98;;
61397;SDS011;47267;48.130;-2.040;2023-10-19T11:46:08;4.88;;;1.40;;
61397;SDS011;47267;48.130;-2.040;2023-10-19T11:48:35;6.90;;;1.85;;
61397;SDS011;47267;48.130;-2.040;2023-10-19T11:51:02;7.90;;;1.92;;
61397;SDS011;47267;48.130;-2.040;2023-10-19T11:53:31;6.97;;;1.98;;
61397;SDS011;47267;48.130;-2.040;2023-10-19T11:56:02;6.57;;;1.85;;
61397;SDS011;47267;48.130;-2.040;2023-10-19T11:58:30;5.50;;;1.35;;
61397;SDS011;47267;48.130;-2.040;2023-10-19T12:01:00;6.43;;;1.30;;
61397;SDS011;47267;48.130;-2.040;2023-10-19T12:03:28;7.75;;;1.95;;
61397;SDS011;47267;48.130;-2.040;2023-10-19T12:05:53;7.10;;;1.85;;
61397;SDS011;47267;48.130;-2.040;2023-10-19T12:08:21;8.10;;;2.15;;
61397;SDS011;47267;48.130;-2.040;2023-10-19T12:10:47;6.88;;;1.67;;
61397;SDS011;47267;48.130;-2.040;2023-10-19T12:13:14;6.18;;;1.52;;
61397;SDS011;47267;48.130;-2.040;2023-10-19T12:15:41;6.35;;;1.67;;
61397;SDS011;47267;48.130;-2.040;2023-10-19T12:18:07;5.85;;;1.30;;
61397;SDS011;47267;48.130;-2.040;2023-10-19T12:20:33;6.20;;;1.55;;
61397;SDS011;47267;48.130;-2.040;2023-10-19T12:23:00;7.75;;;2.05;;
61397;SDS011;47267;48.130;-2.040;2023-10-19T12:25:26;9.02;;;1.60;;
61397;SDS011;47267;48.130;-2.040;2023-10-19T12:27:56;5.55;;;1.55;;
61397;SDS011;47267;48.130;-2.040;2023-10-19T12:30:23;7.60;;;1.60;;
61397;SDS011;47267;48.130;-2.040;2023-10-19T12:32:51;5.90;;;1.65;;
61397;SDS011;47267;48.130;-2.040;2023-10-19T12:35:17;5.95;;;1.60;;
61397;SDS011;47267;48.130;-2.040;2023-10-19T12:37:49;6.55;;;1.52;;
61397;SDS011;47267;48.130;-2.040;2023-10-19T12:40:18;8.30;;;2.10;;
61397;SDS011;47267;48.130;-2.040;2023-10-19T12:42:54;7.00;;;1.52;;
61397;SDS011;47267;48.130;-2.040;2023-10-19T12:45:29;7.75;;;1.83;;
61397;SDS011;47267;48.130;-2.040;2023-10-19T12:47:54;8.80;;;1.92;;
61397;SDS011;47267;48.130;-2.040;2023-10-19T12:50:21;4.75;;;1.38;;
61397;SDS011;47267;48.130;-2.040;2023-10-19T12:52:48;7.68;;;1.80;;
61397;SDS011;47267;48.130;-2.040;2023-10-19T12:55:15;4.25;;;1.25;;
61397;SDS011;47267;48.130;-2.040;2023-10-19T12:57:41;6.32;;;1.65;;
61397;SDS011;47267;48.130;-2.040;2023-10-19T13:00:07;5.15;;;1.45;;
61397;SDS011;47267;48.130;-2.040;2023-10-19T13:02:54;5.45;;;1.50;;
61397;SDS011;47267;48.130;-2.040;2023-10-19T13:05:31;4.13;;;1.40;;
61397;SDS011;47267;48.130;-2.040;2023-10-19T13:07:58;4.93;;;1.50;;
61397;SDS011;47267;48.130;-2.040;2023-10-19T13:10:33;5.13;;;1.30;;
61397;SDS011;47267;48.130;-2.040;2023-10-19T13:13:02;6.30;;;1.75;;
61397;SDS011;47267;48.130;-2.040;2023-10-19T13:15:32;4.35;;;1.20;;
61397;SDS011;47267;48.130;-2.040;2023-10-19T13:18:00;5.88;;;1.60;;
61397;SDS011;47267;48.130;-2.040;2023-10-19T13:20:27;5.00;;;1.70;;
61397;SDS011;47267;48.130;-2.040;2023-10-19T13:22:53;5.82;;;1.45;;
61397;SDS011;47267;48.130;-2.040;2023-10-19T13:25:21;6.25;;;1.50;;
61397;SDS011;47267;48.130;-2.040;2023-10-19T13:28:04;4.93;;;1.40;;
61397;SDS011;47267;48.130;-2.040;2023-10-19T13:30:40;4.78;;;1.35;;
61397;SDS011;47267;48.130;-2.040;2023-10-19T13:33:07;5.30;;;1.15;;
61397;SDS011;47267;48.130;-2.040;2023-10-19T13:35:39;5.53;;;1.58;;
61397;SDS011;47267;48.130;-2.040;2023-10-19T13:38:05;5.28;;;1.30;;
61397;SDS011;47267;48.130;-2.040;2023-10-19T13:40:36;4.32;;;1.10;;
61397;SDS011;47267;48.130;-2.040;2023-10-19T13:43:03;4.10;;;1.38;;
61397;SDS011;47267;48.130;-2.040;2023-10-19T13:45:33;3.78;;;1.35;;
61397;SDS011;47267;48.130;-2.040;2023-10-19T13:48:03;4.07;;;1.10;;
61397;SDS011;47267;48.130;-2.040;2023-10-19T13:50:30;4.25;;;1.10;;
61397;SDS011;47267;48.130;-2.040;2023-10-19T13:52:56;4.45;;;1.30;;
61397;SDS011;47267;48.130;-2.040;2023-10-19T13:55:25;5.97;;;1.40;;
61397;SDS011;47267;48.130;-2.040;2023-10-19T13:57:51;3.90;;;1.02;;
61397;SDS011;47267;48.130;-2.040;2023-10-19T14:00:17;3.08;;;0.95;;
61397;SDS011;47267;48.130;-2.040;2023-10-19T14:02:49;6.75;;;1.33;;
61397;SDS011;47267;48.130;-2.040;2023-10-19T14:05:15;3.63;;;1.08;;
61397;SDS011;47267;48.130;-2.040;2023-10-19T14:07:41;3.58;;;1.33;;
61397;SDS011;47267;48.130;-2.040;2023-10-19T14:10:08;5.60;;;1.65;;
61397;SDS011;47267;48.130;-2.040;2023-10-19T14:12:38;4.38;;;1.20;;
61397;SDS011;47267;48.130;-2.040;2023-10-19T14:15:08;3.47;;;1.17;;
61397;SDS011;47267;48.130;-2.040;2023-10-19T14:17:55;3.83;;;1.10;;
61397;SDS011;47267;48.130;-2.040;2023-10-19T14:20:23;2.60;;;1.20;;
61397;SDS011;47267;48.130;-2.040;2023-10-19T14:22:49;2.70;;;0.90;;
61397;SDS011;47267;48.130;-2.040;2023-10-19T14:25:16;3.35;;;1.02;;
61397;SDS011;47267;48.130;-2.040;2023-10-19T14:27:46;4.28;;;1.20;;
61397;SDS011;47267;48.130;-2.040;2023-10-19T14:30:16;2.80;;;0.95;;
61397;SDS011;47267;48.130;-2.040;2023-10-19T14:32:44;5.82;;;1.00;;
61397;SDS011;47267;48.130;-2.040;2023-10-19T14:37:43;4.80;;;1.20;;
61397;SDS011;47267;48.130;-2.040;2023-10-19T14:40:11;5.03;;;0.93;;
61397;SDS011;47267;48.130;-2.040;2023-10-19T14:42:40;3.65;;;0.93;;
61397;SDS011;47267;48.130;-2.040;2023-10-19T14:45:10;3.40;;;1.10;;
61397;SDS011;47267;48.130;-2.040;2023-10-19T14:47:39;4.07;;;1.13;;
61397;SDS011;47267;48.130;-2.040;2023-10-19T14:50:15;3.35;;;1.27;;
61397;SDS011;47267;48.130;-2.040;2023-10-19T14:52:43;4.40;;;0.90;;
61397;SDS011;47267;48.130;-2.040;2023-10-19T14:55:14;2.90;;;0.98;;
61397;SDS011;47267;48.130;-2.040;2023-10-19T14:57:41;4.65;;;0.90;;
61397;SDS011;47267;48.130;-2.040;2023-10-19T15:00:08;3.50;;;1.00;;
61397;SDS011;47267;48.130;-2.040;2023-10-19T15:02:46;3.90;;;1.30;;
61397;SDS011;47267;48.130;-2.040;2023-10-19T15:05:12;3.10;;;1.23;;
61397;SDS011;47267;48.130;-2.040;2023-10-19T15:07:48;5.25;;;1.33;;